createdAt,value
2018-03-28T00:02:03.208Z,61.60
2018-03-28T00:04:31.632Z,60.67
2018-03-28T00:06:59.949Z,61.02
2018-03-28T00:09:28.305Z,61.13
2018-03-28T00:11:56.755Z,61.05
2018-03-28T00:14:25.171Z,61.80
2018-03-28T00:16:53.824Z,60.56
2018-03-28T00:19:22.122Z,60.94
2018-03-28T00:21:50.803Z,60.80
2018-03-28T00:24:19.467Z,60.98
2018-03-28T00:26:48.057Z,60.75
2018-03-28T00:29:16.538Z,59.79
2018-03-28T00:31:44.811Z,61.71
2018-03-28T00:34:13.438Z,61.16
2018-03-28T00:36:41.969Z,60.99
2018-03-28T00:39:10.765Z,60.37
2018-03-28T00:41:39.554Z,60.58
2018-03-28T00:44:08.168Z,61.18
2018-03-28T00:46:37.852Z,60.89
2018-03-28T00:49:06.275Z,63.04
2018-03-28T00:51:38.354Z,61.88
2018-03-28T00:54:06.767Z,64.57
2018-03-28T00:56:35.100Z,64.95
2018-03-28T00:59:03.723Z,73.89
2018-03-28T01:01:32.029Z,65.41
2018-03-28T01:04:00.474Z,61.63
2018-03-28T01:06:28.963Z,68.06
2018-03-28T01:08:57.685Z,62.30
2018-03-28T01:11:26.155Z,63.34
2018-03-28T01:13:54.811Z,58.54
2018-03-28T01:16:23.219Z,62.63
2018-03-28T01:18:51.881Z,59.97
2018-03-28T01:21:20.455Z,60.01
2018-03-28T01:23:48.782Z,60.40
2018-03-28T01:26:17.079Z,61.67
2018-03-28T01:28:45.559Z,60.26
2018-03-28T01:31:13.889Z,62.84
2018-03-28T01:33:42.550Z,58.58
2018-03-28T01:36:10.830Z,57.64
2018-03-28T01:38:39.312Z,59.20
2018-03-28T01:41:08.098Z,60.05
2018-03-28T01:43:36.774Z,60.17
2018-03-28T01:46:05.345Z,58.49
2018-03-28T01:48:33.754Z,60.02
2018-03-28T01:51:02.219Z,60.74
2018-03-28T01:53:30.610Z,60.60
2018-03-28T01:55:59.085Z,59.27
2018-03-28T01:58:27.762Z,59.83
2018-03-28T02:00:56.624Z,59.63
2018-03-28T02:03:25.002Z,58.91
2018-03-28T02:05:53.622Z,58.56
2018-03-28T02:08:21.965Z,58.02
2018-03-28T02:10:50.586Z,58.42
2018-03-28T02:13:18.959Z,57.87
2018-03-28T02:15:47.275Z,57.52
2018-03-28T02:18:15.935Z,57.45
2018-03-28T02:20:44.301Z,57.23
2018-03-28T02:23:12.686Z,57.20
2018-03-28T02:25:41.158Z,57.11
2018-03-28T02:28:09.735Z,57.18
2018-03-28T02:30:38.256Z,57.38
2018-03-28T02:33:06.707Z,57.58
2018-03-28T02:35:35.276Z,57.45
2018-03-28T02:38:03.610Z,57.30
2018-03-28T02:40:32.030Z,56.67
2018-03-28T02:43:00.634Z,56.26
2018-03-28T02:45:28.998Z,56.79
2018-03-28T02:47:57.649Z,58.89
2018-03-28T02:50:26.077Z,59.05
2018-03-28T02:52:54.440Z,59.27
2018-03-28T02:55:22.749Z,58.77
2018-03-28T02:57:51.087Z,59.21
2018-03-28T03:00:19.676Z,58.69
2018-03-28T03:02:48.060Z,58.83
2018-03-28T03:05:16.652Z,58.96
2018-03-28T03:07:45.012Z,58.09
2018-03-28T03:10:13.640Z,58.28
2018-03-28T03:12:42.199Z,57.74
2018-03-28T03:15:10.659Z,58.06
2018-03-28T03:17:39.046Z,61.24
2018-03-28T03:20:07.640Z,61.93
2018-03-28T03:22:36.303Z,65.61
2018-03-28T03:25:04.693Z,67.39
2018-03-28T03:27:33.174Z,68.64
2018-03-28T03:30:01.847Z,66.78
2018-03-28T03:32:30.529Z,67.97
2018-03-28T03:34:58.859Z,66.86
2018-03-28T03:37:27.228Z,65.76
2018-03-28T03:39:55.580Z,65.89
2018-03-28T03:42:24.037Z,65.31
2018-03-28T03:44:52.543Z,64.38
2018-03-28T03:47:20.794Z,63.22
2018-03-28T03:49:49.315Z,62.37
2018-03-28T03:52:17.657Z,62.43
2018-03-28T03:54:46.113Z,61.79
2018-03-28T03:57:14.537Z,62.32
2018-03-28T03:59:43.098Z,61.42
2018-03-28T04:02:11.509Z,62.36
2018-03-28T04:04:39.972Z,62.94
2018-03-28T04:07:08.745Z,63.03
2018-03-28T04:09:36.868Z,62.98
2018-03-28T04:12:05.305Z,62.93
2018-03-28T04:14:33.748Z,62.90
2018-03-28T04:17:02.168Z,62.27
2018-03-28T04:19:30.655Z,61.94
2018-03-28T04:21:59.013Z,64.31
2018-03-28T04:24:27.614Z,65.15
2018-03-28T04:26:56.095Z,66.74
2018-03-28T04:29:24.662Z,67.50
2018-03-28T04:31:52.881Z,67.10
2018-03-28T04:34:21.209Z,68.03
2018-03-28T04:36:49.722Z,67.75
2018-03-28T04:39:18.417Z,66.66
2018-03-28T04:41:46.858Z,65.97
2018-03-28T04:44:15.448Z,64.14
2018-03-28T04:46:43.941Z,64.56
2018-03-28T04:49:12.606Z,64.10
2018-03-28T04:51:41.289Z,65.14
2018-03-28T04:54:09.571Z,62.82
2018-03-28T04:56:38.151Z,62.70
2018-03-28T04:59:06.630Z,61.09
2018-03-28T05:01:34.928Z,60.32
2018-03-28T05:04:03.556Z,61.21
2018-03-28T05:06:31.974Z,60.98
2018-03-28T05:09:00.566Z,59.86
2018-03-28T05:11:29.129Z,58.79
2018-03-28T05:13:57.415Z,59.42
2018-03-28T05:16:25.584Z,58.74
2018-03-28T05:18:54.270Z,57.93
2018-03-28T05:21:22.462Z,58.34
2018-03-28T05:23:50.730Z,57.62
2018-03-28T05:26:19.166Z,56.78
2018-03-28T05:28:47.578Z,57.89
2018-03-28T05:31:17.098Z,58.07
2018-03-28T05:33:45.778Z,57.06
2018-03-28T05:36:14.465Z,57.32
2018-03-28T05:38:42.938Z,56.06
2018-03-28T05:41:11.485Z,55.92
2018-03-28T05:43:40.005Z,55.31
2018-03-28T05:46:08.282Z,54.48
2018-03-28T05:48:37.179Z,55.90
2018-03-28T05:51:05.542Z,55.63
2018-03-28T05:53:34.183Z,57.11
2018-03-28T05:56:02.624Z,56.52
2018-03-28T05:58:30.922Z,56.88
2018-03-28T06:00:59.635Z,57.23
2018-03-28T06:03:28.140Z,58.87
2018-03-28T06:05:56.739Z,57.86
2018-03-28T06:08:25.233Z,58.59
2018-03-28T06:10:53.707Z,59.63
2018-03-28T06:13:22.276Z,59.70
2018-03-28T06:15:50.557Z,59.40
2018-03-28T06:18:19.036Z,56.77
2018-03-28T06:20:47.516Z,55.89
2018-03-28T06:23:16.268Z,56.63
2018-03-28T06:25:44.779Z,54.20
2018-03-28T06:28:13.358Z,55.20
2018-03-28T06:30:41.904Z,52.98
2018-03-28T06:33:10.124Z,51.54
2018-03-28T06:35:38.599Z,53.17
2018-03-28T06:38:07.096Z,51.10
2018-03-28T06:40:35.786Z,52.11
2018-03-28T06:43:04.242Z,51.21
2018-03-28T06:45:32.739Z,53.18
2018-03-28T06:48:01.218Z,54.00
2018-03-28T06:50:29.891Z,51.78
2018-03-28T06:52:58.278Z,51.66
2018-03-28T06:55:26.748Z,49.83
2018-03-28T06:57:55.435Z,47.38
2018-03-28T07:00:23.620Z,48.90
2018-03-28T07:02:52.296Z,48.88
2018-03-28T07:05:20.946Z,49.12
2018-03-28T07:07:49.287Z,50.99
2018-03-28T07:10:17.636Z,47.67
2018-03-28T07:12:45.938Z,48.15
2018-03-28T07:15:14.463Z,48.10
2018-03-28T07:17:43.143Z,48.88
2018-03-28T07:20:11.463Z,47.37
2018-03-28T07:22:39.933Z,47.07
2018-03-28T07:25:08.336Z,45.85
2018-03-28T07:27:36.800Z,47.53
2018-03-28T07:30:05.381Z,46.02
2018-03-28T07:32:33.757Z,46.31
2018-03-28T07:35:02.339Z,45.86
2018-03-28T07:37:30.781Z,45.24
2018-03-28T07:39:59.006Z,43.04
2018-03-28T07:42:27.467Z,43.78
2018-03-28T07:44:55.886Z,41.90
2018-03-28T07:47:24.450Z,40.88
2018-03-28T07:49:52.471Z,40.30
2018-03-28T07:52:20.830Z,39.49
2018-03-28T07:54:48.809Z,36.92
2018-03-28T07:57:16.824Z,36.26
2018-03-28T07:59:44.900Z,38.74
2018-03-28T08:02:12.865Z,40.47
2018-03-28T08:04:40.853Z,41.00
2018-03-28T08:07:08.857Z,38.56
2018-03-28T08:09:36.834Z,38.95
2018-03-28T08:12:04.852Z,37.66
2018-03-28T08:14:32.865Z,38.89
2018-03-28T08:17:00.897Z,35.02
2018-03-28T08:19:28.859Z,33.24
2018-03-28T08:21:56.895Z,35.72
2018-03-28T08:24:24.901Z,34.89
2018-03-28T08:26:52.987Z,35.51
2018-03-28T08:29:21.083Z,36.19
2018-03-28T08:31:49.039Z,35.78
2018-03-28T08:34:17.049Z,37.61
2018-03-28T08:36:45.020Z,36.76
2018-03-28T08:39:12.985Z,41.13
2018-03-28T08:41:40.965Z,37.22
2018-03-28T08:44:08.939Z,39.45
2018-03-28T08:46:36.913Z,37.58
2018-03-28T08:49:04.912Z,34.36
2018-03-28T08:51:32.952Z,35.39
2018-03-28T08:54:01.187Z,33.85
2018-03-28T08:56:29.152Z,40.03
2018-03-28T08:58:57.220Z,30.26
2018-03-28T09:01:25.213Z,31.42
2018-03-28T09:03:53.216Z,30.33
2018-03-28T09:06:21.206Z,30.63
2018-03-28T09:08:49.188Z,30.37
2018-03-28T09:11:17.235Z,25.70
2018-03-28T09:13:45.252Z,25.81
2018-03-28T09:16:13.207Z,25.53
2018-03-28T09:18:41.279Z,23.78
2018-03-28T09:21:09.299Z,24.79
2018-03-28T09:23:37.242Z,25.50
2018-03-28T09:26:05.284Z,26.41
2018-03-28T09:28:33.351Z,26.13
2018-03-28T09:31:01.377Z,28.42
2018-03-28T09:33:29.419Z,27.94
2018-03-28T09:35:57.430Z,25.41
2018-03-28T09:38:25.430Z,25.89
2018-03-28T09:40:53.409Z,26.13
2018-03-28T09:43:21.411Z,21.57
2018-03-28T09:45:49.350Z,22.28
2018-03-28T09:48:17.411Z,23.43
2018-03-28T09:50:45.396Z,20.22
2018-03-28T09:53:13.482Z,20.98
2018-03-28T09:55:41.871Z,24.04
2018-03-28T09:58:09.962Z,24.41
2018-03-28T10:00:38.164Z,24.78
2018-03-28T10:03:11.821Z,26.51
2018-03-28T10:05:40.345Z,25.61
2018-03-28T10:08:08.525Z,28.60
2018-03-28T10:10:36.513Z,24.86
2018-03-28T10:13:04.555Z,26.14
2018-03-28T10:15:32.536Z,24.42
2018-03-28T10:18:00.570Z,23.71
2018-03-28T10:20:28.550Z,21.88
2018-03-28T10:22:56.513Z,21.29
2018-03-28T10:25:24.544Z,20.77
2018-03-28T10:27:52.478Z,21.27
2018-03-28T10:30:20.500Z,18.18
2018-03-28T10:32:48.522Z,19.32
2018-03-28T10:35:16.507Z,19.77
2018-03-28T10:37:44.506Z,21.37
2018-03-28T10:40:12.535Z,22.33
2018-03-28T10:42:40.542Z,22.73
2018-03-28T10:45:08.550Z,21.93
2018-03-28T10:47:36.486Z,20.65
2018-03-28T10:50:04.548Z,22.23
2018-03-28T10:52:32.596Z,21.32
2018-03-28T10:55:00.600Z,21.95
2018-03-28T10:57:29.059Z,22.61
2018-03-28T10:59:57.056Z,20.91
2018-03-28T11:02:24.927Z,24.97
2018-03-28T11:04:52.889Z,22.03
2018-03-28T11:07:20.893Z,24.16
2018-03-28T11:09:48.862Z,26.86
2018-03-28T11:12:16.899Z,25.76
2018-03-28T11:14:44.887Z,28.25
2018-03-28T11:17:12.875Z,26.30
2018-03-28T11:19:40.859Z,26.57
2018-03-28T11:22:09.174Z,25.63
2018-03-28T11:24:37.198Z,25.47
2018-03-28T11:27:05.533Z,26.70
2018-03-28T11:29:34.187Z,24.52
2018-03-28T11:32:02.203Z,22.88
2018-03-28T11:34:30.216Z,24.70
2018-03-28T11:36:58.223Z,19.94
2018-03-28T11:39:26.238Z,22.00
2018-03-28T11:41:54.308Z,23.43
2018-03-28T11:44:22.306Z,23.48
2018-03-28T11:46:50.286Z,23.95
2018-03-28T11:49:18.268Z,23.61
2018-03-28T11:51:46.245Z,21.86
2018-03-28T11:54:14.340Z,24.59
2018-03-28T11:56:42.919Z,25.70
2018-03-28T11:59:11.758Z,26.31
2018-03-28T12:01:40.422Z,26.89
2018-03-28T12:04:08.378Z,25.75
2018-03-28T12:06:36.368Z,25.96
2018-03-28T12:09:04.887Z,27.16
2018-03-28T12:11:33.336Z,24.89
2018-03-28T12:14:01.822Z,24.85
2018-03-28T12:16:30.486Z,24.57
2018-03-28T12:18:58.788Z,23.94
2018-03-28T12:21:27.461Z,25.83
2018-03-28T12:23:56.001Z,24.11
2018-03-28T12:26:24.406Z,25.91
2018-03-28T12:28:52.902Z,27.18
2018-03-28T12:31:21.512Z,26.17
2018-03-28T12:33:49.922Z,28.96
2018-03-28T12:36:18.330Z,29.07
2018-03-28T12:38:46.713Z,30.11
2018-03-28T12:41:15.187Z,28.51
2018-03-28T12:43:43.666Z,28.03
2018-03-28T12:46:12.261Z,29.31
2018-03-28T12:48:40.639Z,30.70
2018-03-28T12:51:08.924Z,30.92
2018-03-28T12:53:37.698Z,27.78
2018-03-28T12:56:06.157Z,29.35
2018-03-28T12:58:34.451Z,27.75
2018-03-28T13:01:03.337Z,28.35
2018-03-28T13:03:31.764Z,30.39
2018-03-28T13:06:00.303Z,30.97
2018-03-28T13:08:28.686Z,29.81
2018-03-28T13:10:57.267Z,27.43
2018-03-28T13:13:26.057Z,28.50
2018-03-28T13:15:54.326Z,29.65
2018-03-28T13:18:22.733Z,29.45
2018-03-28T13:20:51.278Z,28.21
2018-03-28T13:23:19.779Z,29.14
2018-03-28T13:25:48.346Z,30.63
2018-03-28T13:28:16.748Z,30.75
2018-03-28T13:30:45.418Z,30.17
2018-03-28T13:33:13.946Z,28.50
2018-03-28T13:35:42.469Z,27.92
2018-03-28T13:38:11.268Z,31.70
2018-03-28T13:40:40.150Z,29.72
2018-03-28T13:43:08.839Z,27.84
2018-03-28T13:45:37.047Z,29.21
2018-03-28T13:48:05.595Z,24.88
2018-03-28T13:50:34.144Z,22.69
2018-03-28T13:53:02.759Z,23.85
2018-03-28T13:55:31.178Z,22.98
2018-03-28T13:57:59.724Z,21.02
2018-03-28T14:00:27.921Z,21.23
2018-03-28T14:02:56.673Z,23.78
2018-03-28T14:05:25.192Z,24.80
2018-03-28T14:07:53.837Z,22.84
2018-03-28T14:10:22.225Z,21.19
2018-03-28T14:12:50.502Z,21.93
2018-03-28T14:15:18.719Z,22.19
2018-03-28T14:17:47.160Z,24.26
2018-03-28T14:20:15.939Z,23.89
2018-03-28T14:22:44.727Z,21.47
2018-03-28T14:25:13.211Z,23.84
2018-03-28T14:27:41.287Z,25.70
2018-03-28T14:30:09.765Z,25.44
2018-03-28T14:32:38.271Z,25.10
2018-03-28T14:35:06.721Z,25.58
2018-03-28T14:37:35.225Z,26.29
2018-03-28T14:40:03.587Z,25.24
2018-03-28T14:42:31.858Z,26.12
2018-03-28T14:45:00.039Z,24.22
2018-03-28T14:47:28.611Z,33.77
2018-03-28T14:49:56.706Z,33.18
2018-03-28T14:52:25.373Z,33.17
2018-03-28T14:54:53.875Z,36.02
2018-03-28T14:57:22.434Z,37.76
2018-03-28T14:59:50.819Z,37.54
2018-03-28T15:02:19.287Z,36.91
2018-03-28T15:04:47.599Z,36.55
2018-03-28T15:07:16.059Z,37.05
2018-03-28T15:09:44.627Z,37.74
2018-03-28T15:12:13.157Z,36.95
2018-03-28T15:14:41.582Z,39.43
2018-03-28T15:17:10.275Z,40.57
2018-03-28T15:19:39.060Z,41.68
2018-03-28T15:22:07.865Z,42.20
2018-03-28T15:24:36.444Z,42.87
2018-03-28T15:27:05.037Z,42.20
2018-03-28T15:29:33.213Z,41.36
2018-03-28T15:32:01.672Z,42.58
2018-03-28T15:34:29.959Z,42.57
2018-03-28T15:36:58.334Z,42.17
2018-03-28T15:39:26.959Z,40.99
2018-03-28T15:41:55.402Z,41.99
2018-03-28T15:44:23.978Z,41.67
2018-03-28T15:46:52.619Z,40.41
2018-03-28T15:49:21.204Z,40.85
2018-03-28T15:51:49.715Z,42.43
2018-03-28T15:54:18.134Z,39.96
2018-03-28T15:56:46.778Z,40.04
2018-03-28T15:59:15.204Z,39.31
2018-03-28T16:01:43.577Z,40.22
2018-03-28T16:04:11.834Z,40.33
2018-03-28T16:06:40.602Z,40.46
2018-03-28T16:09:09.716Z,39.56
2018-03-28T16:11:38.280Z,39.36
2018-03-28T16:14:06.721Z,39.11
2018-03-28T16:16:35.027Z,40.55
2018-03-28T16:19:03.855Z,40.36
2018-03-28T16:21:32.302Z,40.82
2018-03-28T16:24:00.794Z,39.59
2018-03-28T16:26:29.565Z,39.83
2018-03-28T16:28:57.857Z,39.89
2018-03-28T16:31:26.119Z,39.51
2018-03-28T16:33:54.872Z,40.00
2018-03-28T16:36:23.124Z,40.56
2018-03-28T16:38:51.628Z,40.44
2018-03-28T16:41:20.290Z,40.66
2018-03-28T16:43:48.516Z,40.46
2018-03-28T16:46:16.971Z,40.82
2018-03-28T16:48:45.392Z,40.94
2018-03-28T16:51:14.132Z,41.17
2018-03-28T16:53:42.583Z,41.54
2018-03-28T16:56:11.044Z,41.47
2018-03-28T16:58:39.608Z,40.67
2018-03-28T17:01:08.003Z,40.76
2018-03-28T17:03:36.892Z,39.93
2018-03-28T17:06:05.355Z,40.18
2018-03-28T17:08:33.887Z,38.71
2018-03-28T17:11:01.862Z,38.76
2018-03-28T17:13:29.893Z,38.89
2018-03-28T17:15:57.926Z,38.89
2018-03-28T17:18:25.932Z,38.72
2018-03-28T17:20:53.899Z,40.31
2018-03-28T17:23:21.927Z,41.62
2018-03-28T17:25:49.942Z,42.62
2018-03-28T17:28:17.973Z,45.82
2018-03-28T17:30:46.044Z,46.89
2018-03-28T17:33:14.025Z,47.39
2018-03-28T17:35:42.038Z,47.39
2018-03-28T17:38:10.068Z,47.10
2018-03-28T17:40:38.139Z,46.17
2018-03-28T17:43:06.195Z,46.11
2018-03-28T17:45:34.184Z,45.56
2018-03-28T17:48:02.180Z,44.11
2018-03-28T17:50:30.227Z,43.22
2018-03-28T17:52:58.283Z,42.65
2018-03-28T17:55:26.328Z,45.23
2018-03-28T17:57:54.424Z,46.65
2018-03-28T18:00:22.455Z,45.37
2018-03-28T18:02:50.547Z,45.50
2018-03-28T18:05:18.571Z,46.60
2018-03-28T18:07:46.654Z,47.19
2018-03-28T18:10:15.006Z,46.89
2018-03-28T18:12:43.017Z,46.43
2018-03-28T18:15:11.040Z,46.00
2018-03-28T18:17:39.136Z,46.58
2018-03-28T18:20:07.191Z,46.29
2018-03-28T18:22:35.197Z,46.27
2018-03-28T18:25:03.308Z,45.72
2018-03-28T18:27:31.352Z,45.97
2018-03-28T18:29:59.386Z,45.54
2018-03-28T18:32:27.423Z,46.17
2018-03-28T18:34:55.461Z,46.08
2018-03-28T18:37:23.428Z,45.76
2018-03-28T18:39:51.440Z,45.86
2018-03-28T18:42:19.416Z,46.72
2018-03-28T18:44:47.423Z,46.37
2018-03-28T18:47:15.401Z,45.78
2018-03-28T18:49:43.472Z,46.36
2018-03-28T18:52:11.476Z,46.01
2018-03-28T18:54:39.563Z,45.84
2018-03-28T18:57:07.640Z,46.42
2018-03-28T18:59:35.724Z,48.85
2018-03-28T19:02:03.750Z,48.85
2018-03-28T19:04:31.750Z,48.93
2018-03-28T19:06:59.786Z,48.83
2018-03-28T19:09:27.850Z,49.50
2018-03-28T19:11:56.362Z,48.99
2018-03-28T19:14:24.396Z,47.86
2018-03-28T19:16:52.566Z,48.27
2018-03-28T19:19:20.600Z,47.97
2018-03-28T19:21:48.671Z,46.88
2018-03-28T19:24:16.569Z,47.99
2018-03-28T19:26:44.570Z,47.49
2018-03-28T19:29:12.620Z,47.84
2018-03-28T19:31:40.684Z,48.46
2018-03-28T19:34:08.735Z,49.78
2018-03-28T19:36:36.782Z,49.86
2018-03-28T19:39:05.014Z,49.47
2018-03-28T19:41:33.882Z,48.95
2018-03-28T19:44:01.925Z,47.73
2018-03-28T19:46:29.996Z,46.70
2018-03-28T19:48:58.003Z,46.68
2018-03-28T19:51:26.011Z,45.67
2018-03-28T19:53:53.985Z,45.31
2018-03-28T19:56:21.965Z,46.22
2018-03-28T19:58:49.996Z,45.46
2018-03-28T20:01:17.942Z,45.00
2018-03-28T20:03:45.913Z,45.02
2018-03-28T20:06:14.019Z,44.89
2018-03-28T20:08:42.043Z,44.21
2018-03-28T20:11:10.055Z,45.10
2018-03-28T20:13:38.470Z,44.65
2018-03-28T20:16:06.528Z,45.09
2018-03-28T20:18:34.504Z,44.94
2018-03-28T20:21:02.526Z,44.01
2018-03-28T20:23:30.515Z,45.13
2018-03-28T20:25:58.564Z,46.28
2018-03-28T20:28:26.602Z,45.18
2018-03-28T20:30:54.564Z,44.83
2018-03-28T20:33:22.498Z,44.26
2018-03-28T20:35:50.552Z,43.91
2018-03-28T20:38:18.588Z,43.81
2018-03-28T20:40:46.582Z,43.20
2018-03-28T20:43:14.604Z,43.70
2018-03-28T20:45:42.663Z,43.70
2018-03-28T20:48:10.679Z,44.92
2018-03-28T20:50:38.663Z,44.32
2018-03-28T20:53:06.712Z,44.96
2018-03-28T20:55:34.710Z,44.72
2018-03-28T20:58:02.668Z,46.52
2018-03-28T21:00:30.707Z,46.55
2018-03-28T21:02:58.727Z,45.70
2018-03-28T21:05:26.743Z,44.70
2018-03-28T21:07:54.828Z,44.88
2018-03-28T21:10:22.873Z,44.57
2018-03-28T21:12:50.979Z,44.97
2018-03-28T21:15:19.399Z,46.37
2018-03-28T21:17:47.451Z,46.11
2018-03-28T21:20:15.492Z,47.87
2018-03-28T21:22:43.566Z,47.03
2018-03-28T21:25:11.585Z,46.44
2018-03-28T21:27:39.655Z,45.14
2018-03-28T21:30:07.715Z,46.38
2018-03-28T21:32:35.779Z,46.67
2018-03-28T21:35:03.850Z,46.13
2018-03-28T21:37:31.897Z,47.10
2018-03-28T21:39:59.986Z,47.12
2018-03-28T21:42:27.983Z,47.47
2018-03-28T21:44:56.039Z,46.45
2018-03-28T21:47:24.082Z,46.02
2018-03-28T21:49:52.122Z,47.03
2018-03-28T21:52:20.102Z,46.87
2018-03-28T21:54:48.186Z,48.78
2018-03-28T21:57:16.151Z,47.69
2018-03-28T21:59:44.209Z,47.52
2018-03-28T22:02:12.255Z,45.96
2018-03-28T22:04:40.318Z,46.07
2018-03-28T22:07:08.376Z,46.48
2018-03-28T22:09:36.448Z,45.72
2018-03-28T22:12:04.608Z,47.58
2018-03-28T22:14:32.687Z,46.56
2018-03-28T22:17:01.132Z,46.45
2018-03-28T22:19:29.207Z,46.26
2018-03-28T22:21:57.315Z,46.17
2018-03-28T22:24:25.654Z,46.65
2018-03-28T22:26:53.765Z,46.70
2018-03-28T22:29:21.845Z,47.11
2018-03-28T22:31:49.920Z,46.82
2018-03-28T22:34:18.031Z,46.74
2018-03-28T22:36:46.076Z,46.47
2018-03-28T22:39:14.114Z,45.13
2018-03-28T22:41:42.174Z,45.83
2018-03-28T22:44:10.132Z,46.55
2018-03-28T22:46:38.127Z,46.47
2018-03-28T22:49:06.177Z,46.90
2018-03-28T22:51:34.232Z,46.81
2018-03-28T22:54:02.306Z,46.27
2018-03-28T22:56:30.377Z,46.56
2018-03-28T22:58:58.444Z,47.06
2018-03-28T23:01:26.504Z,47.64
2018-03-28T23:03:54.641Z,47.81
2018-03-28T23:06:22.730Z,50.35
2018-03-28T23:08:50.797Z,48.57
2018-03-28T23:11:18.881Z,48.00
2018-03-28T23:13:46.908Z,49.17
2018-03-28T23:16:14.940Z,49.79
2018-03-28T23:18:43.366Z,53.54
2018-03-28T23:21:11.433Z,48.00
2018-03-28T23:23:39.485Z,48.05
2018-03-28T23:26:07.568Z,47.67
2018-03-28T23:28:35.621Z,47.78
2018-03-28T23:31:03.682Z,49.34
2018-03-28T23:33:31.629Z,46.64
2018-03-28T23:35:59.631Z,47.66
2018-03-28T23:38:27.637Z,47.71
2018-03-28T23:40:55.682Z,47.33
2018-03-28T23:43:23.733Z,47.35
2018-03-28T23:45:51.747Z,47.89
2018-03-28T23:48:19.802Z,49.19
2018-03-28T23:50:47.787Z,47.60
2018-03-28T23:53:15.867Z,47.87
2018-03-28T23:55:43.883Z,48.20
2018-03-28T23:58:11.958Z,47.60
